createdAt,value
2022-10-14T04:26:21.938Z,66.30
2022-10-14T04:29:33.036Z,66.80
2022-10-14T04:32:10.687Z,66.70
2022-10-14T04:34:58.279Z,66.90
2022-10-14T04:37:32.826Z,67.00
2022-10-14T04:40:11.510Z,67.10
2022-10-14T04:42:50.775Z,67.10
2022-10-14T04:45:25.665Z,67.10
2022-10-14T04:48:00.846Z,67.00
2022-10-14T04:50:35.558Z,66.70
2022-10-14T04:53:37.523Z,66.90
2022-10-14T04:56:29.127Z,66.80
2022-10-14T04:59:14.227Z,66.90
2022-10-14T05:02:34.310Z,66.80
2022-10-14T05:05:20.990Z,66.90
2022-10-14T05:08:03.089Z,66.90
2022-10-14T05:11:00.498Z,66.60
2022-10-14T05:13:44.697Z,66.70
2022-10-14T05:16:18.551Z,66.90
2022-10-14T05:18:56.178Z,66.60
2022-10-14T05:21:36.626Z,66.70
2022-10-14T05:24:36.726Z,66.70
2022-10-14T05:27:10.899Z,66.70
2022-10-14T05:30:20.957Z,66.90
2022-10-14T05:33:03.061Z,66.70
2022-10-14T05:36:08.751Z,66.80
2022-10-14T05:38:45.077Z,66.80
2022-10-14T05:41:27.027Z,66.80
2022-10-14T05:44:06.017Z,66.80
2022-10-14T05:47:12.170Z,66.70
2022-10-14T05:53:12.621Z,66.90
2022-10-14T05:55:57.480Z,67.00
2022-10-14T05:58:30.183Z,66.90
2022-10-14T06:01:02.525Z,66.90
2022-10-14T06:03:38.164Z,66.90
2022-10-14T06:06:29.314Z,67.00
2022-10-14T06:09:05.486Z,66.90
2022-10-14T06:11:42.017Z,66.90
2022-10-14T06:14:37.903Z,67.00
2022-10-14T06:17:29.103Z,66.90
2022-10-14T06:20:15.705Z,67.00
2022-10-14T06:23:08.508Z,67.00
2022-10-14T06:26:12.014Z,67.10
2022-10-14T06:29:44.796Z,67.00
2022-10-14T06:32:36.550Z,67.00
2022-10-14T06:35:46.653Z,67.00
2022-10-14T06:38:56.458Z,67.00
2022-10-14T06:41:43.680Z,67.10
2022-10-14T06:44:43.751Z,67.00
2022-10-14T06:47:35.287Z,67.00
2022-10-14T06:50:36.492Z,67.10
2022-10-14T06:53:53.849Z,67.00
2022-10-14T06:56:33.074Z,67.20
2022-10-14T06:59:40.013Z,67.10
2022-10-14T07:02:28.393Z,67.10
